Terminal Aerodrome Forecast
Issued by NWS Charleston, WV

Home | Current Version | Previous Version | Text Only | Print | Product List | Glossary On
Versions: 1 2 3 4 5 6 7 8 9 10 11 12 13 14 15 16 17 18 19 20 21 22 23 24 25 26 27 28
000
FTUS41 KRLX 200828 AAB
TAFEKN
TAF AMD
KEKN 200828Z 2008/2106 28009KT P6SM OVC035
      TEMPO 2008/2012 BKN025
     FM201200 27007KT P6SM SCT030
     FM201600 25005KT P6SM FEW250
     FM210500 19003KT P6SM FEW250=

USA.gov is the U.S. government's official web portal to all federal, state and local government web resources and services.